Time;durP1;ratioP1;P1;durP2;ratioP2;P2;SDS_P1;SDS_P2;PMS_P1;PMS_P2;Temp;Humidity;BMP_temperature;BMP_pressure;BME280_temperature;BME280_humidity;BME280_pressure;Samples;Min_cycle;Max_cycle;Signal;HPM_P1;HPM_P2
2022/10/22 00:00:01;;;;;;;9.13;5.70;;;;;;;14.32;100.00;99981.97;5049203;28;20143;-77
2022/10/22 00:02:28;;;;;;;9.88;5.97;;;;;;;14.35;100.00;99989.75;5048072;28;20128;-76
2022/10/22 00:04:55;;;;;;;7.72;5.70;;;;;;;14.35;100.00;99991.56;5047624;28;20094;-74
2022/10/22 00:07:23;;;;;;;10.82;5.85;;;;;;;14.33;100.00;99986.31;5045344;28;20048;-75
2022/10/22 00:09:49;;;;;;;10.68;6.05;;;;;;;14.31;100.00;99984.75;5046964;28;20045;-74
2022/10/22 00:12:16;;;;;;;14.45;6.55;;;;;;;14.28;100.00;99977.81;5049226;28;20049;-75
2022/10/22 00:14:43;;;;;;;12.70;6.40;;;;;;;14.07;100.00;99950.00;5049436;28;20503;-76
2022/10/22 00:17:09;;;;;;;11.52;6.13;;;;;;;14.09;100.00;99942.75;5044758;28;20401;-77
2022/10/22 00:19:38;;;;;;;13.13;7.13;;;;;;;14.17;100.00;99967.03;5047786;28;20084;-76
2022/10/22 00:22:06;;;;;;;13.48;7.07;;;;;;;14.14;100.00;99966.41;5048728;28;20496;-76
2022/10/22 00:24:34;;;;;;;12.30;7.30;;;;;;;14.12;100.00;99971.00;5047714;28;20056;-76
2022/10/22 00:27:02;;;;;;;14.43;7.38;;;;;;;14.10;100.00;99968.44;5041862;28;20045;-75
2022/10/22 00:29:28;;;;;;;15.55;6.90;;;;;;;14.10;100.00;99963.09;5045667;28;20060;-75
2022/10/22 00:31:55;;;;;;;10.60;6.38;;;;;;;14.16;100.00;99967.16;5046557;28;20053;-76
2022/10/22 00:34:27;;;;;;;11.13;6.68;;;;;;;14.04;100.00;99942.22;5042590;28;20506;-76
2022/10/22 00:36:54;;;;;;;9.63;6.38;;;;;;;14.17;100.00;99960.84;5045229;28;20045;-75
2022/10/22 00:39:23;;;;;;;10.93;6.43;;;;;;;14.19;100.00;99962.47;5045681;28;20059;-75
2022/10/22 00:41:51;;;;;;;12.13;7.40;;;;;;;14.21;100.00;99954.38;5048334;28;20116;-75
2022/10/22 00:44:55;;;;;;;14.40;7.63;;;;;;;14.20;100.00;99966.84;5047565;28;20461;-74
2022/10/22 00:47:24;;;;;;;11.98;7.30;;;;;;;14.14;100.00;99961.09;5040908;28;20047;-75
2022/10/22 00:49:52;;;;;;;12.30;7.47;;;;;;;14.10;100.00;99951.59;5043802;28;20049;-76
2022/10/22 00:52:20;;;;;;;19.27;8.13;;;;;;;14.10;100.00;99951.59;5044179;28;20144;-76
2022/10/22 00:54:47;;;;;;;17.10;8.27;;;;;;;13.95;100.00;99925.06;5040109;28;20042;-74
2022/10/22 00:57:16;;;;;;;20.58;8.32;;;;;;;13.98;100.00;99913.38;5042323;28;20049;-75
2022/10/22 00:59:42;;;;;;;14.20;8.48;;;;;;;14.12;100.00;99939.91;5047335;28;20090;-76
2022/10/22 01:02:09;;;;;;;16.73;8.27;;;;;;;14.11;100.00;99940.84;5047026;28;20040;-75
2022/10/22 01:04:35;;;;;;;12.45;7.53;;;;;;;14.09;100.00;99940.09;5042559;28;20041;-74
2022/10/22 01:07:03;;;;;;;11.98;7.22;;;;;;;14.16;100.00;99949.38;5040728;28;20054;-76
2022/10/22 01:09:40;;;;;;;13.52;7.45;;;;;;;14.18;100.00;99951.91;5043706;28;20056;-74
2022/10/22 01:12:33;;;;;;;13.70;7.50;;;;;;;14.17;100.00;99947.53;5044499;28;20072;-76
2022/10/22 01:15:00;;;;;;;12.75;6.85;;;;;;;14.15;100.00;99950.34;5047512;28;20063;-75
2022/10/22 01:17:29;;;;;;;12.70;7.25;;;;;;;14.12;100.00;99950.53;5047365;28;20049;-75
2022/10/22 01:20:10;;;;;;;12.38;7.25;;;;;;;14.09;100.00;99950.75;5043391;28;20056;-75
2022/10/22 01:22:37;;;;;;;16.10;7.00;;;;;;;13.97;100.00;99938.28;5028079;28;20540;-77
2022/10/22 01:25:28;;;;;;;14.15;6.50;;;;;;;14.09;100.00;99960.53;5045321;28;20061;-77
2022/10/22 01:28:09;;;;;;;16.25;7.65;;;;;;;14.08;100.00;99974.81;5044345;28;20060;-77
2022/10/22 01:30:38;;;;;;;13.57;7.30;;;;;;;14.04;100.00;99968.84;5043276;28;20404;-76
2022/10/22 01:33:10;;;;;;;14.77;7.35;;;;;;;14.10;100.00;99980.88;5043343;28;20143;-76
2022/10/22 01:35:41;;;;;;;19.08;7.97;;;;;;;14.10;100.00;99973.75;5044058;28;20428;-76
2022/10/22 01:38:12;;;;;;;15.27;7.55;;;;;;;13.96;100.00;99955.19;5044069;28;20059;-77
2022/10/22 01:40:41;;;;;;;15.25;8.07;;;;;;;14.11;100.00;99974.59;5044972;28;20041;-75
2022/10/22 01:43:10;;;;;;;14.05;8.10;;;;;;;14.09;100.00;99971.19;5043782;28;22575;-77
2022/10/22 01:45:50;;;;;;;10.10;6.63;;;;;;;13.93;100.00;99958.91;5042438;28;20059;-77
2022/10/22 01:48:55;;;;;;;13.93;7.35;;;;;;;14.06;100.00;99977.56;5047475;28;20885;-77
2022/10/22 01:51:33;;;;;;;13.20;6.82;;;;;;;14.05;100.00;99983.84;5037767;28;20049;-76
2022/10/22 01:54:28;;;;;;;12.45;7.32;;;;;;;14.06;100.00;99988.22;5044459;28;20477;-76
2022/10/22 01:57:00;;;;;;;14.35;6.93;;;;;;;14.08;100.00;99990.78;5037186;28;20049;-78
2022/10/22 01:59:43;;;;;;;11.80;6.93;;;;;;;14.03;100.00;99985.75;5043461;28;20045;-78
2022/10/22 02:02:24;;;;;;;13.82;7.15;;;;;;;14.03;100.00;99975.97;5044589;28;20044;-76
2022/10/22 02:05:01;;;;;;;16.27;7.43;;;;;;;14.06;100.00;99988.22;5047867;28;20073;-77
2022/10/22 02:07:34;;;;;;;13.57;6.72;;;;;;;14.00;100.00;99976.19;5045077;28;20060;-75
2022/10/22 02:10:02;;;;;;;11.32;6.55;;;;;;;13.96;100.00;99968.50;5047691;28;20045;-77
2022/10/22 02:12:31;;;;;;;11.52;6.88;;;;;;;13.97;100.00;99967.56;5043564;28;20049;-77
2022/10/22 02:14:59;;;;;;;9.15;5.40;;;;;;;14.09;100.00;99985.34;5044191;28;20481;-76
2022/10/22 02:17:29;;;;;;;11.40;5.10;;;;;;;14.10;100.00;99991.53;5045040;28;20049;-77
2022/10/22 02:19:59;;;;;;;11.18;4.35;;;;;;;14.03;100.00;99983.94;5041430;28;20041;-75
2022/10/22 02:22:27;;;;;;;7.20;4.18;;;;;;;13.96;100.00;99987.16;5045084;28;20067;-75
2022/10/22 02:24:54;;;;;;;6.85;3.60;;;;;;;13.95;100.00;99990.75;5040106;28;20055;-77
2022/10/22 02:27:39;;;;;;;7.60;3.90;;;;;;;13.95;100.00;99994.28;5045081;28;20080;-75
2022/10/22 02:30:06;;;;;;;7.53;4.07;;;;;;;13.96;100.00;100003.13;5042917;28;20043;-77
2022/10/22 02:32:55;;;;;;;6.15;3.00;;;;;;;13.81;100.00;99988.19;5046605;28;20425;-78
2022/10/22 02:35:25;;;;;;;6.75;3.33;;;;;;;13.91;100.00;100010.56;5042724;28;20056;-76
2022/10/22 02:37:54;;;;;;;8.80;3.13;;;;;;;13.88;100.00;99994.78;5044573;28;20080;-77
2022/10/22 02:40:21;;;;;;;7.90;3.10;;;;;;;13.91;100.00;100010.56;5035899;28;20443;-75
2022/10/22 02:42:49;;;;;;;7.30;3.10;;;;;;;13.72;100.00;99973.66;5041664;28;20053;-75
2022/10/22 02:45:18;;;;;;;4.90;2.88;;;;;;;13.90;100.00;99992.88;5043494;28;20347;-75
2022/10/22 02:47:45;;;;;;;7.07;3.03;;;;;;;13.87;100.00;99990.41;5044639;28;20052;-76
2022/10/22 02:50:11;;;;;;;4.82;2.72;;;;;;;13.91;100.00;100006.09;5036503;28;20440;-77
2022/10/22 02:52:38;;;;;;;6.25;2.78;;;;;;;13.78;100.00;99986.56;5040011;28;20114;-75
2022/10/22 02:55:05;;;;;;;4.78;2.30;;;;;;;13.83;100.00;99992.44;5042093;28;20107;-76
2022/10/22 02:57:32;;;;;;;5.55;2.60;;;;;;;13.87;100.00;99999.25;5042431;28;20056;-77
2022/10/22 02:59:59;;;;;;;5.13;2.70;;;;;;;13.87;100.00;99990.41;5043386;28;20494;-76
2022/10/22 03:02:25;;;;;;;5.47;2.83;;;;;;;13.75;100.00;99975.28;5047045;28;20060;-75
2022/10/22 03:04:52;;;;;;;5.00;2.83;;;;;;;13.84;100.00;99990.63;5043666;28;20055;-76
2022/10/22 03:07:18;;;;;;;7.00;2.60;;;;;;;13.79;100.00;99992.75;5045812;28;20055;-76
2022/10/22 03:09:45;;;;;;;7.15;3.03;;;;;;;13.74;100.00;100000.16;5047648;28;20053;-75
2022/10/22 03:12:12;;;;;;;5.85;2.60;;;;;;;13.60;100.00;99980.66;5045658;28;20084;-75
2022/10/22 03:14:39;;;;;;;8.48;2.60;;;;;;;13.74;100.00;100017.00;5044682;28;20052;-76
2022/10/22 03:17:05;;;;;;;6.93;2.92;;;;;;;13.63;100.00;100007.06;5044455;28;20057;-77
2022/10/22 03:19:32;;;;;;;7.90;2.75;;;;;;;13.69;100.00;100011.97;5047629;28;20461;-76
2022/10/22 03:22:01;;;;;;;8.50;2.50;;;;;;;13.70;100.00;100007.50;5045467;28;20052;-76
2022/10/22 03:24:34;;;;;;;4.63;2.40;;;;;;;13.71;100.00;100006.53;5047028;28;20044;-77
2022/10/22 03:27:01;;;;;;;4.57;2.28;;;;;;;13.69;100.00;100003.97;5047218;28;22675;-75
2022/10/22 03:29:30;;;;;;;3.97;2.50;;;;;;;13.59;100.00;99986.94;5049630;28;20049;-76
2022/10/22 03:31:57;;;;;;;4.90;2.60;;;;;;;13.75;100.00;100017.84;5046723;28;20040;-74
2022/10/22 03:34:23;;;;;;;7.20;2.58;;;;;;;13.64;100.00;100008.78;5044830;28;20531;-76
2022/10/22 03:36:51;;;;;;;5.75;2.90;;;;;;;13.62;100.00;100016.00;5044978;28;20406;-76
2022/10/22 03:39:19;;;;;;;6.40;2.20;;;;;;;13.73;100.00;100043.69;5046421;28;20160;-76
2022/10/22 03:41:48;;;;;;;5.05;2.70;;;;;;;13.68;100.00;100039.56;5045540;28;20139;-75
2022/10/22 03:44:16;;;;;;;4.97;2.70;;;;;;;13.70;100.00;100040.28;5044428;28;20123;-75
2022/10/22 03:46:43;;;;;;;6.57;2.75;;;;;;;13.80;100.00;100051.19;5041196;28;20446;-75
2022/10/22 03:49:10;;;;;;;6.88;3.00;;;;;;;13.83;100.00;100051.00;5042969;28;20067;-75
2022/10/22 03:51:37;;;;;;;5.22;2.13;;;;;;;13.83;100.00;100055.47;5045568;28;20049;-76
2022/10/22 03:54:03;;;;;;;6.07;2.67;;;;;;;13.73;100.00;100033.91;5048233;28;20483;-75
2022/10/22 03:56:30;;;;;;;4.25;2.05;;;;;;;13.85;100.00;100045.59;5044947;28;20049;-75
2022/10/22 03:58:58;;;;;;;4.25;2.33;;;;;;;13.89;100.00;100061.22;5044605;28;20111;-75
2022/10/22 04:01:26;;;;;;;8.48;2.15;;;;;;;13.90;100.00;100068.25;5049332;28;20045;-75
2022/10/22 04:03:53;;;;;;;5.80;2.60;;;;;;;13.62;100.00;100020.47;5045278;28;20041;-76
2022/10/22 04:06:20;;;;;;;3.25;2.30;;;;;;;13.93;100.00;100075.19;5046019;28;20653;-75
2022/10/22 04:08:47;;;;;;;4.18;2.30;;;;;;;13.77;100.00;100048.72;5045694;28;20037;-75
2022/10/22 04:11:15;;;;;;;8.18;2.53;;;;;;;13.94;100.00;100079.56;5043595;28;20084;-76
2022/10/22 04:13:41;;;;;;;4.18;2.65;;;;;;;13.93;100.00;100078.72;5046642;28;20073;-75
2022/10/22 04:16:12;;;;;;;4.90;2.28;;;;;;;13.81;100.00;100063.56;5042445;28;20056;-77
2022/10/22 04:18:40;;;;;;;4.35;2.28;;;;;;;13.95;100.00;100078.59;5048095;28;20382;-77
2022/10/22 04:21:09;;;;;;;3.13;2.00;;;;;;;13.78;100.00;100053.09;5043808;28;20158;-75
2022/10/22 04:23:36;;;;;;;5.88;2.10;;;;;;;13.95;100.00;100092.78;5047555;28;20053;-76
2022/10/22 04:26:05;;;;;;;2.38;1.70;;;;;;;13.66;100.00;100054.75;5044526;28;20045;-75
2022/10/22 04:28:33;;;;;;;3.33;1.87;;;;;;;13.86;100.00;100097.81;5046319;28;20071;-76
2022/10/22 04:30:59;;;;;;;4.68;2.10;;;;;;;13.81;100.00;100095.50;5043546;28;20135;-76
2022/10/22 04:33:26;;;;;;;6.15;2.13;;;;;;;13.88;100.00;100103.91;5042098;28;20486;-75
2022/10/22 04:35:52;;;;;;;3.78;1.95;;;;;;;13.85;100.00;100107.63;5040559;28;20421;-75
2022/10/22 04:38:19;;;;;;;5.38;1.80;;;;;;;13.84;100.00;100097.94;5047023;28;20040;-76
2022/10/22 04:40:46;;;;;;;5.22;1.88;;;;;;;13.74;100.00;100085.31;5045685;28;20389;-76
2022/10/22 04:43:12;;;;;;;3.38;1.80;;;;;;;13.81;100.00;100098.16;5044818;28;20403;-76
2022/10/22 04:45:39;;;;;;;5.03;1.83;;;;;;;13.75;100.00;100084.38;5043906;28;20045;-76
2022/10/22 04:48:05;;;;;;;5.15;1.70;;;;;;;13.82;100.00;100099.84;5044354;28;20054;-76
2022/10/22 04:50:32;;;;;;;5.35;1.95;;;;;;;13.74;100.00;100093.31;5046640;28;20053;-74
2022/10/22 04:52:58;;;;;;;6.15;2.22;;;;;;;13.75;100.00;100110.97;5047893;28;20052;-75
2022/10/22 04:55:25;;;;;;;4.30;1.95;;;;;;;13.63;100.00;100070.91;5050583;28;20057;-76
2022/10/22 04:57:52;;;;;;;6.15;2.08;;;;;;;13.82;100.00;100102.53;5042802;28;20489;-76
2022/10/22 05:00:18;;;;;;;4.95;2.10;;;;;;;13.67;100.00;100085.75;5044362;28;20055;-76
2022/10/22 05:02:48;;;;;;;5.15;1.83;;;;;;;13.57;100.00;100063.31;5046761;28;20041;-73
2022/10/22 05:05:15;;;;;;;4.32;1.88;;;;;;;13.64;100.00;100080.59;5039803;28;20068;-76
2022/10/22 05:07:41;;;;;;;5.80;1.80;;;;;;;13.76;100.00;100107.38;5045951;28;20048;-76
2022/10/22 05:10:09;;;;;;;4.72;1.80;;;;;;;13.55;100.00;100072.34;5046275;28;20053;-75
2022/10/22 05:12:35;;;;;;;3.10;1.63;;;;;;;13.69;100.00;100102.44;5044876;28;20045;-75
2022/10/22 05:15:02;;;;;;;4.13;2.10;;;;;;;13.64;100.00;100099.22;5041729;28;20049;-74
2022/10/22 05:17:28;;;;;;;5.82;2.00;;;;;;;13.70;100.00;100120.09;5040868;28;20516;-76
2022/10/22 05:19:55;;;;;;;3.20;1.70;;;;;;;13.72;100.00;100119.16;5042985;28;20460;-75
2022/10/22 05:22:21;;;;;;;2.88;1.85;;;;;;;13.75;100.00;100124.28;5045757;28;20053;-75
2022/10/22 05:24:48;;;;;;;3.83;1.90;;;;;;;13.67;100.00;100117.66;5041471;28;20052;-75
2022/10/22 05:27:14;;;;;;;5.15;2.20;;;;;;;13.47;100.00;100091.47;5044105;28;20047;-75
2022/10/22 05:29:41;;;;;;;3.47;2.03;;;;;;;13.54;100.00;100105.22;5043426;28;20175;-75
2022/10/22 05:32:07;;;;;;;2.75;1.80;;;;;;;13.67;100.00;100128.31;5042007;28;20037;-75
2022/10/22 05:34:35;;;;;;;4.63;2.00;;;;;;;13.64;100.00;100128.50;5043614;28;20056;-74
2022/10/22 05:37:01;;;;;;;3.15;1.90;;;;;;;13.68;100.00;100138.00;5040841;28;20053;-75
2022/10/22 05:39:28;;;;;;;4.72;1.95;;;;;;;13.70;100.00;100129.91;5045214;28;20404;-76
2022/10/22 05:41:55;;;;;;;3.90;1.70;;;;;;;13.70;100.00;100135.22;5042093;28;20060;-76
2022/10/22 05:44:21;;;;;;;3.58;2.00;;;;;;;13.70;100.00;100140.53;5043967;28;20421;-75
2022/10/22 05:46:48;;;;;;;2.75;1.70;;;;;;;13.76;100.00;100156.13;5037843;28;20402;-75
2022/10/22 05:49:15;;;;;;;2.95;2.30;;;;;;;13.77;100.00;100149.84;5045027;28;20127;-75
2022/10/22 05:51:42;;;;;;;4.72;1.98;;;;;;;13.56;100.00;100117.47;5040947;28;20414;-75
2022/10/22 05:54:16;;;;;;;2.10;1.52;;;;;;;13.75;100.00;100149.09;5046418;28;20048;-74
2022/10/22 05:56:43;;;;;;;3.58;1.77;;;;;;;13.68;100.00;100137.16;5047361;28;20632;-75
2022/10/22 05:59:10;;;;;;;4.82;2.05;;;;;;;13.69;100.00;100133.53;5041432;28;20045;-75
2022/10/22 06:01:39;;;;;;;3.63;1.70;;;;;;;13.84;100.00;100159.16;5043939;28;20044;-75
2022/10/22 06:04:08;;;;;;;3.95;1.83;;;;;;;13.87;100.00;100166.06;5039121;28;20155;-75
2022/10/22 06:06:45;;;;;;;3.33;1.50;;;;;;;13.82;100.00;100152.22;5045515;28;20059;-74
2022/10/22 06:09:15;;;;;;;2.25;1.88;;;;;;;13.69;100.00;100136.19;5039291;28;20051;-73
2022/10/22 06:11:41;;;;;;;3.10;1.92;;;;;;;13.74;100.00;100139.41;5039689;28;20553;-74
2022/10/22 06:14:09;;;;;;;2.20;1.98;;;;;;;13.95;100.00;100167.31;5042522;28;20051;-74
2022/10/22 06:16:36;;;;;;;3.50;1.80;;;;;;;13.90;100.00;100165.88;5045113;28;20504;-74
2022/10/22 06:19:03;;;;;;;2.42;1.85;;;;;;;13.90;100.00;100180.06;5046040;28;20049;-75
2022/10/22 06:21:30;;;;;;;3.88;2.10;;;;;;;13.87;100.00;100184.72;5044288;28;20170;-75
2022/10/22 06:23:59;;;;;;;3.55;1.85;;;;;;;13.80;100.00;100176.28;5045331;28;20508;-75
2022/10/22 06:26:25;;;;;;;3.92;1.85;;;;;;;13.64;100.00;100162.25;5041035;28;21492;-75
2022/10/22 06:28:54;;;;;;;3.83;1.85;;;;;;;13.74;100.00;100181.97;5041779;28;20400;-74
2022/10/22 06:31:21;;;;;;;4.70;2.03;;;;;;;13.70;100.00;100194.63;5040897;28;20079;-76
2022/10/22 06:33:48;;;;;;;3.25;2.00;;;;;;;13.65;100.00;100196.72;5042652;28;20055;-75
2022/10/22 06:36:17;;;;;;;4.60;1.77;;;;;;;13.36;100.00;100144.50;5042707;28;20041;-75
2022/10/22 06:38:44;;;;;;;3.78;1.90;;;;;;;13.63;100.00;100195.97;5043871;28;20053;-74
2022/10/22 06:41:13;;;;;;;3.00;1.52;;;;;;;13.75;100.00;100217.44;5040780;28;20408;-75
2022/10/22 06:43:41;;;;;;;4.78;1.65;;;;;;;13.69;100.00;100221.34;5044380;28;20053;-75
2022/10/22 06:46:08;;;;;;;4.30;2.30;;;;;;;13.64;100.00;100228.75;5033442;28;20147;-75
2022/10/22 06:48:36;;;;;;;2.70;1.60;;;;;;;13.65;100.00;100225.16;5046366;28;20073;-76
2022/10/22 06:51:05;;;;;;;4.15;2.28;;;;;;;13.69;100.00;100235.47;5039962;28;20139;-73
2022/10/22 06:53:32;;;;;;;2.80;2.10;;;;;;;13.61;100.00;100221.81;5039571;28;20466;-75
2022/10/22 06:56:06;;;;;;;3.08;2.03;;;;;;;13.68;100.00;100239.13;5041275;28;20037;-74
2022/10/22 06:58:33;;;;;;;5.10;2.45;;;;;;;13.69;100.00;100246.13;5036817;28;20041;-75
2022/10/22 07:01:04;;;;;;;5.72;2.28;;;;;;;13.72;100.00;100241.56;5037451;28;20055;-74
2022/10/22 07:03:31;;;;;;;4.18;2.30;;;;;;;13.67;100.00;100242.72;5042183;28;20052;-73
2022/10/22 07:05:59;;;;;;;3.58;2.08;;;;;;;13.68;100.00;100255.09;5033840;28;20045;-74
2022/10/22 07:08:26;;;;;;;5.80;2.03;;;;;;;13.67;100.00;100249.84;5040209;28;20072;-74
2022/10/22 07:10:54;;;;;;;4.53;2.10;;;;;;;13.78;100.00;100265.16;5034435;28;20064;-73
2022/10/22 07:13:20;;;;;;;2.88;1.80;;;;;;;13.81;100.00;100263.16;5036197;28;20132;-74
2022/10/22 07:15:55;;;;;;;2.58;1.98;;;;;;;13.55;100.00;100211.53;5041942;28;20045;-74
2022/10/22 07:18:22;;;;;;;3.30;2.03;;;;;;;13.92;100.00;100265.13;5043874;28;20048;-75
2022/10/22 07:20:49;;;;;;;5.30;2.00;;;;;;;14.00;100.00;100257.53;5040591;28;20052;-72
2022/10/22 07:23:16;;;;;;;3.30;2.15;;;;;;;14.18;100.00;100275.00;5045247;28;20053;-74
2022/10/22 07:25:42;;;;;;;2.83;1.92;;;;;;;14.32;100.00;100274.97;5041598;28;20092;-72
2022/10/22 07:28:09;;;;;;;2.25;1.67;;;;;;;14.54;100.00;100281.59;5035483;28;20060;-74
2022/10/22 07:30:37;;;;;;;4.70;1.77;;;;;;;14.61;100.00;100278.47;5036087;28;20068;-72
2022/10/22 07:33:04;;;;;;;3.20;1.70;;;;;;;14.47;100.00;100257.19;5038868;28;20064;-71
2022/10/22 07:35:31;;;;;;;3.35;1.55;;;;;;;14.57;100.00;100284.06;5042894;28;20059;-74
2022/10/22 07:37:58;;;;;;;4.75;1.90;;;;;;;14.43;100.00;100258.34;5037621;28;20057;-75
2022/10/22 07:40:24;;;;;;;3.65;1.88;;;;;;;14.62;100.00;100295.31;5036991;28;20136;-73
2022/10/22 07:42:51;;;;;;;4.05;1.75;;;;;;;14.69;100.00;100292.13;5036318;28;20044;-74
2022/10/22 07:45:18;;;;;;;2.20;1.52;;;;;;;14.81;100.00;100308.25;5041900;28;20164;-76
2022/10/22 07:47:46;;;;;;;4.95;1.70;;;;;;;14.91;100.00;100315.56;5035015;28;20049;-72
2022/10/22 07:50:14;;;;;;;2.95;1.48;;;;;;;14.96;100.00;100315.25;5039839;28;20049;-74
2022/10/22 07:52:40;;;;;;;2.40;1.58;;;;;;;14.93;100.00;100316.31;5032480;28;20413;-72
2022/10/22 07:55:07;;;;;;;4.25;1.60;;;;;;;14.95;100.00;100318.88;5041469;28;20053;-73
2022/10/22 07:57:36;;;;;;;4.78;1.45;;;;;;;15.02;100.00;100321.03;5037887;28;20049;-74
2022/10/22 08:00:07;;;;;;;5.72;1.80;;;;;;;15.00;100.00;100295.41;5035965;28;20053;-73
2022/10/22 08:02:34;;;;;;;2.42;1.55;;;;;;;15.07;100.00;100320.75;5041099;28;20056;-73
2022/10/22 08:05:00;;;;;;;2.30;1.42;;;;;;;15.00;100.00;100327.41;5038742;28;20129;-74
2022/10/22 08:07:27;;;;;;;3.25;1.48;;;;;;;15.26;100.00;100328.38;5044449;28;20053;-74
2022/10/22 08:09:54;;;;;;;3.55;1.92;;;;;;;15.42;100.00;100321.03;5041322;28;20037;-73
2022/10/22 08:12:20;;;;;;;3.22;1.50;;;;;;;15.47;100.00;100331.38;5036964;28;20041;-74
2022/10/22 08:14:47;;;;;;;1.88;1.35;;;;;;;15.32;100.00;100328.78;5042048;28;20044;-73
2022/10/22 08:17:13;;;;;;;2.63;1.50;;;;;;;15.23;100.00;100328.56;5041580;28;20059;-74
2022/10/22 08:19:40;;;;;;;4.45;1.50;;;;;;;15.17;100.00;100331.63;5045203;28;20104;-74
2022/10/22 08:22:07;;;;;;;3.55;1.55;;;;;;;15.15;100.00;100339.72;5039454;28;20132;-74
2022/10/22 08:24:33;;;;;;;3.95;1.60;;;;;;;15.14;100.00;100335.34;5042684;28;20378;-74
2022/10/22 08:27:00;;;;;;;3.47;1.23;;;;;;;15.04;100.00;100307.59;5040781;28;20148;-74
2022/10/22 08:29:26;;;;;;;3.97;1.65;;;;;;;15.15;100.00;100323.72;5045789;28;20144;-73
2022/10/22 08:31:53;;;;;;;5.78;2.38;;;;;;;15.18;100.00;100333.34;5047515;28;20466;-72
2022/10/22 08:34:20;;;;;;;3.65;1.40;;;;;;;15.07;100.00;100340.25;5042884;28;20804;-72
2022/10/22 08:36:46;;;;;;;3.13;1.45;;;;;;;15.07;100.00;100339.41;5047488;28;20068;-73
2022/10/22 08:39:13;;;;;;;3.45;2.03;;;;;;;14.97;100.00;100328.47;5042847;28;20048;-73
2022/10/22 08:42:03;;;;;;;4.32;1.40;;;;;;;15.17;100.00;100348.50;5037054;28;20041;-71
2022/10/22 08:44:46;;;;;;;1.23;0.90;;;;;;;15.20;100.00;100352.78;5009499;28;20051;-72
2022/10/22 08:47:48;;;;;;;4.82;1.02;;;;;;;15.23;100.00;100361.44;5037868;28;20570;-71
2022/10/22 08:50:25;;;;;;;3.35;1.05;;;;;;;15.18;100.00;100360.00;5043002;28;20168;-73
2022/10/22 08:52:58;;;;;;;4.43;1.00;;;;;;;15.14;100.00;100358.50;5042399;28;20132;-71
2022/10/22 08:55:25;;;;;;;1.90;0.60;;;;;;;14.95;100.00;100325.03;5044628;28;20473;-71
2022/10/22 08:58:08;;;;;;;3.00;0.80;;;;;;;15.22;100.00;100343.72;5045639;28;20128;-70
2022/10/22 09:00:51;;;;;;;3.63;1.10;;;;;;;15.41;100.00;100365.53;5044680;28;20051;-71
2022/10/22 09:03:42;;;;;;;3.45;0.90;;;;;;;15.36;100.00;100369.47;5042204;28;20057;-72
2022/10/22 09:06:22;;;;;;;1.98;0.73;;;;;;;15.29;100.00;100377.00;5038474;28;20053;-72
2022/10/22 09:08:49;;;;;;;2.40;0.60;;;;;;;15.29;100.00;100355.66;5041898;28;20045;-72
2022/10/22 09:11:33;;;;;;;3.42;0.77;;;;;;;15.58;100.00;100377.78;5043474;28;20041;-71
2022/10/22 09:14:01;;;;;;;2.35;0.80;;;;;;;15.73;100.00;100351.84;5039001;28;22965;-73
2022/10/22 09:17:01;;;;;;;3.25;0.73;;;;;;;15.82;100.00;100375.22;5040799;28;20060;-72
2022/10/22 09:19:30;;;;;;;2.00;0.68;;;;;;;15.81;100.00;100378.00;5043575;28;20045;-70
2022/10/22 09:22:24;;;;;;;1.10;0.82;;;;;;;15.81;100.00;100375.34;5041050;28;20040;-73
2022/10/22 09:24:58;;;;;;;3.95;0.88;;;;;;;15.81;100.00;100373.53;5040974;28;20045;-71
2022/10/22 09:27:29;;;;;;;4.40;1.30;;;;;;;15.69;100.00;100369.03;5044321;28;20496;-72
2022/10/22 09:29:56;;;;;;;3.25;0.75;;;;;;;15.54;100.00;100370.91;5046742;28;20124;-72
2022/10/22 09:32:24;;;;;;;2.78;0.68;;;;;;;15.52;100.00;100379.97;5047710;28;20049;-74
2022/10/22 09:34:56;;;;;;;2.17;1.30;;;;;;;15.50;100.00;100380.06;5043504;28;20053;-72
2022/10/22 09:37:28;;;;;;;2.10;0.90;;;;;;;15.52;100.00;100382.63;5038399;28;20055;-72
2022/10/22 09:39:57;;;;;;;0.90;0.50;;;;;;;15.48;100.00;100387.31;5046546;28;20075;-72
2022/10/22 09:42:24;;;;;;;1.48;0.40;;;;;;;15.38;100.00;100399.56;5047993;28;20103;-73
2022/10/22 09:44:53;;;;;;;4.60;0.80;;;;;;;15.43;100.00;100389.44;5046016;28;20164;-73
2022/10/22 09:47:32;;;;;;;2.75;0.77;;;;;;;15.44;100.00;100393.81;5044357;28;20140;-73
2022/10/22 09:50:21;;;;;;;4.38;0.70;;;;;;;15.47;100.00;100398.94;5047076;28;20055;-75
2022/10/22 09:53:18;;;;;;;2.15;0.50;;;;;;;15.61;100.00;100400.72;5045626;28;20051;-72
2022/10/22 09:55:51;;;;;;;4.25;0.63;;;;;;;15.74;100.00;100383.75;5026248;28;20177;-73
2022/10/22 09:58:18;;;;;;;2.17;0.50;;;;;;;16.01;100.00;100399.72;5038054;28;20365;-73
2022/10/22 10:00:51;;;;;;;1.98;1.00;;;;;;;16.24;100.00;100400.75;5043960;28;20422;-72
2022/10/22 10:03:21;;;;;;;2.15;0.60;;;;;;;16.44;100.00;100404.69;5047731;28;20136;-73
2022/10/22 10:05:53;;;;;;;2.70;0.80;;;;;;;16.53;100.00;100401.34;5047096;28;20147;-74
2022/10/22 10:08:19;;;;;;;2.95;0.82;;;;;;;16.59;100.00;100402.75;5043351;28;20409;-73
2022/10/22 10:10:51;;;;;;;1.05;0.60;;;;;;;16.73;100.00;100397.28;5046900;28;20191;-73
2022/10/22 10:13:37;;;;;;;4.95;0.75;;;;;;;16.73;100.00;100400.81;5036587;28;20047;-73
2022/10/22 10:16:04;;;;;;;1.65;0.60;;;;;;;16.60;100.00;100378.59;5045601;28;20044;-73
2022/10/22 10:19:06;;;;;;;6.82;0.90;;;;;;;16.72;100.00;100398.25;5040833;28;20107;-73
2022/10/22 10:21:48;;;;;;;3.15;1.00;;;;;;;16.75;100.00;100401.56;5038750;28;20049;-73
2022/10/22 10:24:30;;;;;;;4.53;1.10;;;;;;;16.84;100.00;100408.09;5042067;28;20578;-72
2022/10/22 10:27:15;;;;;;;5.35;1.30;;;;;;;16.88;98.37;100406.03;5027052;28;20055;-72
2022/10/22 10:30:02;;;;;;;7.47;1.23;;;;;;;17.03;98.70;100403.09;5043992;28;20055;-72
2022/10/22 10:32:53;;;;;;;3.75;1.30;;;;;;;17.21;96.14;100410.72;5042740;28;20066;-71
2022/10/22 10:35:53;;;;;;;3.30;1.00;;;;;;;17.36;93.73;100409.56;5041956;28;20107;-72
2022/10/22 10:38:35;;;;;;;2.58;0.98;;;;;;;17.50;93.16;100406.72;5045628;28;20150;-72
2022/10/22 10:41:50;;;;;;;2.63;0.90;;;;;;;17.71;90.54;100409.63;5042728;28;20128;-73
2022/10/22 10:44:47;;;;;;;5.00;0.75;;;;;;;17.80;89.29;100414.28;5042050;28;20041;-73
2022/10/22 10:47:46;;;;;;;2.63;0.80;;;;;;;17.82;90.05;100406.97;5040477;28;20067;-73
2022/10/22 10:50:29;;;;;;;3.28;0.75;;;;;;;17.70;89.41;100411.44;5035801;28;20481;-73
2022/10/22 10:53:17;;;;;;;1.90;0.60;;;;;;;17.66;91.41;100412.66;5035297;28;20056;-73
2022/10/22 10:56:00;;;;;;;2.15;0.85;;;;;;;17.57;90.71;100416.00;5039505;28;20071;-73
2022/10/22 10:58:47;;;;;;;2.08;1.55;;;;;;;17.60;92.90;100414.91;5038467;28;20490;-72
2022/10/22 11:01:41;;;;;;;1.42;0.60;;;;;;;17.63;92.45;100407.47;5039266;28;20045;-73
2022/10/22 11:04:33;;;;;;;2.80;1.00;;;;;;;17.66;92.09;100401.94;5038563;28;20048;-73
2022/10/22 11:07:06;;;;;;;2.53;0.90;;;;;;;17.83;91.37;100406.00;5042190;28;20489;-72
2022/10/22 11:10:04;;;;;;;3.60;0.90;;;;;;;18.03;90.64;100401.78;5038283;28;20072;-73
2022/10/22 11:12:35;;;;;;;4.93;0.85;;;;;;;17.98;88.41;100401.28;5038699;28;20041;-72
2022/10/22 11:15:28;;;;;;;1.92;0.98;;;;;;;18.01;88.55;100390.34;5043161;28;20041;-72
2022/10/22 11:18:01;;;;;;;3.17;0.82;;;;;;;18.00;88.23;100378.75;5040447;28;20075;-75
2022/10/22 11:20:46;;;;;;;4.40;0.90;;;;;;;18.09;87.77;100399.50;5040056;28;20136;-72
2022/10/22 11:23:19;;;;;;;3.92;0.80;;;;;;;17.94;86.54;100394.47;5030357;28;20041;-71
2022/10/22 11:25:49;;;;;;;3.58;0.90;;;;;;;17.90;87.29;100393.84;5041717;28;20068;-72
2022/10/22 11:28:20;;;;;;;2.35;1.00;;;;;;;17.87;87.83;100386.91;5044174;28;20406;-72
2022/10/22 11:30:52;;;;;;;;;;;;;;;17.88;88.36;100395.78;5042256;28;20052;-73
2022/10/22 11:33:23;;;;;;;2.85;0.80;;;;;;;17.78;88.48;100397.50;5037760;28;19924;-72
2022/10/22 11:35:51;;;;;;;4.47;1.05;;;;;;;17.69;88.81;100393.66;5033601;28;20067;-72
2022/10/22 11:38:23;;;;;;;3.05;0.80;;;;;;;17.81;88.69;100399.91;5038491;28;20049;-73